sensor_id;sensor_type;location;lat;lon;timestamp;P1;durP1;ratioP1;P2;durP2;ratioP2
7440;SDS011;29616;51.950;8.572;2023-05-08T00:01:05;6.65;;;3.88;;
7440;SDS011;29616;51.950;8.572;2023-05-08T00:03:35;7.25;;;5.35;;
7440;SDS011;29616;51.950;8.572;2023-05-08T00:06:06;6.50;;;3.90;;
7440;SDS011;29616;51.950;8.572;2023-05-08T00:11:05;8.43;;;5.38;;
7440;SDS011;29616;51.950;8.572;2023-05-08T00:13:33;7.13;;;4.55;;
7440;SDS011;29616;51.950;8.572;2023-05-08T00:16:01;5.72;;;4.68;;
7440;SDS011;29616;51.950;8.572;2023-05-08T00:18:31;4.75;;;2.13;;
7440;SDS011;29616;51.950;8.572;2023-05-08T00:21:00;7.72;;;5.18;;
7440;SDS011;29616;51.950;8.572;2023-05-08T00:23:31;7.63;;;4.88;;
7440;SDS011;29616;51.950;8.572;2023-05-08T00:25:59;7.95;;;5.82;;
7440;SDS011;29616;51.950;8.572;2023-05-08T00:28:30;6.78;;;3.47;;
7440;SDS011;29616;51.950;8.572;2023-05-08T00:30:59;6.57;;;3.20;;
7440;SDS011;29616;51.950;8.572;2023-05-08T00:33:29;9.23;;;6.55;;
7440;SDS011;29616;51.950;8.572;2023-05-08T00:36:00;8.23;;;6.22;;
7440;SDS011;29616;51.950;8.572;2023-05-08T00:38:32;7.00;;;4.63;;
7440;SDS011;29616;51.950;8.572;2023-05-08T00:41:03;7.25;;;4.20;;
7440;SDS011;29616;51.950;8.572;2023-05-08T00:43:31;8.95;;;5.40;;
7440;SDS011;29616;51.950;8.572;2023-05-08T00:46:00;7.25;;;5.03;;
7440;SDS011;29616;51.950;8.572;2023-05-08T00:48:31;7.72;;;6.57;;
7440;SDS011;29616;51.950;8.572;2023-05-08T00:51:05;8.52;;;6.30;;
7440;SDS011;29616;51.950;8.572;2023-05-08T00:53:37;7.97;;;5.18;;
7440;SDS011;29616;51.950;8.572;2023-05-08T00:56:12;7.40;;;5.25;;
7440;SDS011;29616;51.950;8.572;2023-05-08T00:58:44;6.13;;;3.10;;
7440;SDS011;29616;51.950;8.572;2023-05-08T01:01:15;7.68;;;6.28;;
7440;SDS011;29616;51.950;8.572;2023-05-08T01:03:45;7.97;;;6.00;;
7440;SDS011;29616;51.950;8.572;2023-05-08T01:06:17;7.35;;;6.30;;
7440;SDS011;29616;51.950;8.572;2023-05-08T01:08:47;8.63;;;5.47;;
7440;SDS011;29616;51.950;8.572;2023-05-08T01:11:20;5.78;;;3.28;;
7440;SDS011;29616;51.950;8.572;2023-05-08T01:13:58;8.32;;;5.18;;
7440;SDS011;29616;51.950;8.572;2023-05-08T01:16:40;8.40;;;6.28;;
7440;SDS011;29616;51.950;8.572;2023-05-08T01:19:26;7.65;;;6.13;;
7440;SDS011;29616;51.950;8.572;2023-05-08T01:22:25;8.00;;;4.20;;
7440;SDS011;29616;51.950;8.572;2023-05-08T01:32:37;6.75;;;4.93;;
7440;SDS011;29616;51.950;8.572;2023-05-08T01:35:11;7.57;;;4.97;;
7440;SDS011;29616;51.950;8.572;2023-05-08T01:37:49;8.93;;;5.80;;
7440;SDS011;29616;51.950;8.572;2023-05-08T01:40:27;8.20;;;5.20;;
7440;SDS011;29616;51.950;8.572;2023-05-08T01:43:07;7.68;;;4.35;;
7440;SDS011;29616;51.950;8.572;2023-05-08T01:45:45;8.48;;;5.32;;
7440;SDS011;29616;51.950;8.572;2023-05-08T01:48:21;9.10;;;5.97;;
7440;SDS011;29616;51.950;8.572;2023-05-08T01:50:59;7.45;;;5.70;;
7440;SDS011;29616;51.950;8.572;2023-05-08T01:53:35;10.77;;;6.88;;
7440;SDS011;29616;51.950;8.572;2023-05-08T01:56:11;8.32;;;6.57;;
7440;SDS011;29616;51.950;8.572;2023-05-08T01:58:44;7.97;;;4.85;;
7440;SDS011;29616;51.950;8.572;2023-05-08T02:01:16;8.55;;;6.40;;
7440;SDS011;29616;51.950;8.572;2023-05-08T02:03:50;10.13;;;6.68;;
7440;SDS011;29616;51.950;8.572;2023-05-08T02:06:21;7.22;;;5.57;;
7440;SDS011;29616;51.950;8.572;2023-05-08T02:08:52;9.10;;;6.55;;
7440;SDS011;29616;51.950;8.572;2023-05-08T02:11:22;8.88;;;6.07;;
7440;SDS011;29616;51.950;8.572;2023-05-08T02:13:52;8.32;;;6.03;;
7440;SDS011;29616;51.950;8.572;2023-05-08T02:16:21;8.93;;;5.95;;
7440;SDS011;29616;51.950;8.572;2023-05-08T02:18:55;10.60;;;5.93;;
7440;SDS011;29616;51.950;8.572;2023-05-08T02:21:28;7.80;;;5.45;;
7440;SDS011;29616;51.950;8.572;2023-05-08T02:23:58;9.07;;;6.55;;
7440;SDS011;29616;51.950;8.572;2023-05-08T02:26:28;8.50;;;5.72;;
7440;SDS011;29616;51.950;8.572;2023-05-08T02:28:59;9.23;;;5.00;;
7440;SDS011;29616;51.950;8.572;2023-05-08T02:31:30;9.10;;;5.25;;
7440;SDS011;29616;51.950;8.572;2023-05-08T02:34:03;11.48;;;6.88;;
7440;SDS011;29616;51.950;8.572;2023-05-08T02:36:34;9.57;;;4.85;;
7440;SDS011;29616;51.950;8.572;2023-05-08T02:39:05;9.75;;;6.82;;
7440;SDS011;29616;51.950;8.572;2023-05-08T02:41:38;10.52;;;6.68;;
7440;SDS011;29616;51.950;8.572;2023-05-08T02:44:09;9.50;;;5.30;;
7440;SDS011;29616;51.950;8.572;2023-05-08T02:46:42;10.20;;;6.38;;
7440;SDS011;29616;51.950;8.572;2023-05-08T02:49:26;10.68;;;5.78;;
7440;SDS011;29616;51.950;8.572;2023-05-08T02:52:02;11.93;;;6.75;;
7440;SDS011;29616;51.950;8.572;2023-05-08T02:54:40;10.70;;;7.40;;
7440;SDS011;29616;51.950;8.572;2023-05-08T02:57:20;10.35;;;5.68;;
7440;SDS011;29616;51.950;8.572;2023-05-08T03:00:08;12.95;;;6.82;;
7440;SDS011;29616;51.950;8.572;2023-05-08T03:02:46;13.05;;;7.40;;
7440;SDS011;29616;51.950;8.572;2023-05-08T03:05:22;10.20;;;5.20;;
7440;SDS011;29616;51.950;8.572;2023-05-08T03:07:58;9.85;;;7.47;;
7440;SDS011;29616;51.950;8.572;2023-05-08T03:10:33;10.60;;;5.70;;
7440;SDS011;29616;51.950;8.572;2023-05-08T03:13:04;12.15;;;6.03;;
7440;SDS011;29616;51.950;8.572;2023-05-08T03:15:37;11.25;;;7.43;;
7440;SDS011;29616;51.950;8.572;2023-05-08T03:18:13;12.57;;;7.57;;
7440;SDS011;29616;51.950;8.572;2023-05-08T03:20:48;10.05;;;6.30;;
7440;SDS011;29616;51.950;8.572;2023-05-08T03:23:22;15.65;;;8.15;;
7440;SDS011;29616;51.950;8.572;2023-05-08T03:25:56;12.18;;;7.30;;
7440;SDS011;29616;51.950;8.572;2023-05-08T03:28:27;10.85;;;5.85;;
7440;SDS011;29616;51.950;8.572;2023-05-08T03:30:59;12.68;;;8.13;;
7440;SDS011;29616;51.950;8.572;2023-05-08T03:33:28;13.27;;;6.78;;
7440;SDS011;29616;51.950;8.572;2023-05-08T03:36:01;12.13;;;7.90;;
7440;SDS011;29616;51.950;8.572;2023-05-08T03:38:31;11.65;;;5.78;;
7440;SDS011;29616;51.950;8.572;2023-05-08T03:41:01;12.77;;;6.95;;
7440;SDS011;29616;51.950;8.572;2023-05-08T03:43:33;12.75;;;8.25;;
7440;SDS011;29616;51.950;8.572;2023-05-08T03:46:05;14.20;;;9.68;;
7440;SDS011;29616;51.950;8.572;2023-05-08T03:48:36;13.40;;;8.32;;
7440;SDS011;29616;51.950;8.572;2023-05-08T03:51:09;12.82;;;6.80;;
7440;SDS011;29616;51.950;8.572;2023-05-08T03:53:41;12.27;;;7.45;;
7440;SDS011;29616;51.950;8.572;2023-05-08T03:56:11;15.25;;;8.93;;
7440;SDS011;29616;51.950;8.572;2023-05-08T03:58:43;14.02;;;6.72;;
7440;SDS011;29616;51.950;8.572;2023-05-08T04:01:20;14.15;;;8.07;;
7440;SDS011;29616;51.950;8.572;2023-05-08T04:04:00;13.65;;;8.48;;
7440;SDS011;29616;51.950;8.572;2023-05-08T04:06:39;14.32;;;9.30;;
7440;SDS011;29616;51.950;8.572;2023-05-08T04:09:26;13.25;;;8.50;;
7440;SDS011;29616;51.950;8.572;2023-05-08T04:12:04;14.30;;;9.18;;
7440;SDS011;29616;51.950;8.572;2023-05-08T04:14:41;12.48;;;5.80;;
7440;SDS011;29616;51.950;8.572;2023-05-08T04:17:14;11.73;;;6.30;;
7440;SDS011;29616;51.950;8.572;2023-05-08T04:19:51;12.25;;;6.65;;
7440;SDS011;29616;51.950;8.572;2023-05-08T04:22:28;14.68;;;8.93;;
7440;SDS011;29616;51.950;8.572;2023-05-08T04:25:02;17.10;;;6.78;;
7440;SDS011;29616;51.950;8.572;2023-05-08T04:27:37;13.73;;;5.72;;
7440;SDS011;29616;51.950;8.572;2023-05-08T04:30:07;13.07;;;6.72;;
7440;SDS011;29616;51.950;8.572;2023-05-08T04:32:38;13.65;;;6.80;;
7440;SDS011;29616;51.950;8.572;2023-05-08T04:35:14;14.75;;;6.68;;
7440;SDS011;29616;51.950;8.572;2023-05-08T04:37:45;13.55;;;8.10;;
7440;SDS011;29616;51.950;8.572;2023-05-08T04:40:16;12.00;;;6.43;;
7440;SDS011;29616;51.950;8.572;2023-05-08T04:42:45;11.95;;;7.22;;
7440;SDS011;29616;51.950;8.572;2023-05-08T04:45:17;12.05;;;6.07;;
7440;SDS011;29616;51.950;8.572;2023-05-08T04:47:47;12.55;;;6.78;;
7440;SDS011;29616;51.950;8.572;2023-05-08T04:50:15;11.85;;;7.68;;
7440;SDS011;29616;51.950;8.572;2023-05-08T04:52:48;13.38;;;8.93;;
7440;SDS011;29616;51.950;8.572;2023-05-08T04:55:16;16.38;;;8.85;;
7440;SDS011;29616;51.950;8.572;2023-05-08T04:57:46;11.57;;;6.90;;
7440;SDS011;29616;51.950;8.572;2023-05-08T05:00:15;10.65;;;6.40;;
7440;SDS011;29616;51.950;8.572;2023-05-08T05:02:47;13.05;;;6.22;;
7440;SDS011;29616;51.950;8.572;2023-05-08T05:05:16;10.48;;;5.75;;
7440;SDS011;29616;51.950;8.572;2023-05-08T05:07:49;10.60;;;6.38;;
7440;SDS011;29616;51.950;8.572;2023-05-08T05:10:19;11.32;;;7.75;;
7440;SDS011;29616;51.950;8.572;2023-05-08T05:12:50;11.27;;;7.30;;
7440;SDS011;29616;51.950;8.572;2023-05-08T05:15:20;11.38;;;7.78;;
7440;SDS011;29616;51.950;8.572;2023-05-08T05:17:51;9.65;;;6.28;;
7440;SDS011;29616;51.950;8.572;2023-05-08T05:20:19;10.90;;;8.48;;
7440;SDS011;29616;51.950;8.572;2023-05-08T05:22:49;11.05;;;7.35;;
7440;SDS011;29616;51.950;8.572;2023-05-08T05:25:19;9.23;;;5.97;;
7440;SDS011;29616;51.950;8.572;2023-05-08T05:27:48;8.90;;;7.05;;
7440;SDS011;29616;51.950;8.572;2023-05-08T05:30:19;9.98;;;7.10;;
7440;SDS011;29616;51.950;8.572;2023-05-08T05:32:49;9.80;;;6.20;;
7440;SDS011;29616;51.950;8.572;2023-05-08T05:35:17;9.48;;;7.47;;
7440;SDS011;29616;51.950;8.572;2023-05-08T05:37:50;8.18;;;4.47;;
7440;SDS011;29616;51.950;8.572;2023-05-08T05:40:19;10.55;;;7.63;;
7440;SDS011;29616;51.950;8.572;2023-05-08T05:42:49;10.65;;;8.18;;
7440;SDS011;29616;51.950;8.572;2023-05-08T05:45:18;11.95;;;8.35;;
7440;SDS011;29616;51.950;8.572;2023-05-08T05:47:49;10.13;;;5.95;;
7440;SDS011;29616;51.950;8.572;2023-05-08T05:50:23;9.23;;;7.35;;
7440;SDS011;29616;51.950;8.572;2023-05-08T05:52:56;9.85;;;7.50;;
7440;SDS011;29616;51.950;8.572;2023-05-08T05:55:25;10.10;;;7.88;;
7440;SDS011;29616;51.950;8.572;2023-05-08T05:57:53;10.65;;;7.15;;
7440;SDS011;29616;51.950;8.572;2023-05-08T06:00:23;10.60;;;7.85;;
7440;SDS011;29616;51.950;8.572;2023-05-08T06:02:55;10.32;;;7.70;;
7440;SDS011;29616;51.950;8.572;2023-05-08T06:05:25;7.55;;;6.20;;
7440;SDS011;29616;51.950;8.572;2023-05-08T06:07:58;9.57;;;7.55;;
7440;SDS011;29616;51.950;8.572;2023-05-08T06:10:27;10.15;;;7.50;;
7440;SDS011;29616;51.950;8.572;2023-05-08T06:12:59;7.93;;;5.70;;
7440;SDS011;29616;51.950;8.572;2023-05-08T06:15:28;9.00;;;7.00;;
7440;SDS011;29616;51.950;8.572;2023-05-08T06:17:59;9.27;;;7.90;;
7440;SDS011;29616;51.950;8.572;2023-05-08T06:20:28;7.47;;;4.90;;
7440;SDS011;29616;51.950;8.572;2023-05-08T06:23:00;8.85;;;6.85;;
7440;SDS011;29616;51.950;8.572;2023-05-08T06:25:29;10.65;;;9.07;;
7440;SDS011;29616;51.950;8.572;2023-05-08T06:27:58;8.98;;;4.57;;
7440;SDS011;29616;51.950;8.572;2023-05-08T06:30:28;9.23;;;5.30;;
7440;SDS011;29616;51.950;8.572;2023-05-08T06:32:58;7.82;;;4.53;;
7440;SDS011;29616;51.950;8.572;2023-05-08T06:35:29;8.65;;;7.85;;
7440;SDS011;29616;51.950;8.572;2023-05-08T06:37:58;9.90;;;7.25;;
7440;SDS011;29616;51.950;8.572;2023-05-08T06:40:28;7.15;;;5.03;;
7440;SDS011;29616;51.950;8.572;2023-05-08T06:42:56;8.15;;;4.88;;
7440;SDS011;29616;51.950;8.572;2023-05-08T06:45:27;8.65;;;5.60;;
7440;SDS011;29616;51.950;8.572;2023-05-08T06:47:55;7.13;;;5.68;;
7440;SDS011;29616;51.950;8.572;2023-05-08T06:50:25;6.20;;;4.10;;
7440;SDS011;29616;51.950;8.572;2023-05-08T06:52:54;7.70;;;6.78;;
7440;SDS011;29616;51.950;8.572;2023-05-08T06:55:28;7.63;;;6.40;;
7440;SDS011;29616;51.950;8.572;2023-05-08T06:57:57;7.00;;;5.80;;
7440;SDS011;29616;51.950;8.572;2023-05-08T07:00:28;6.88;;;4.15;;
7440;SDS011;29616;51.950;8.572;2023-05-08T07:02:57;8.00;;;5.20;;
7440;SDS011;29616;51.950;8.572;2023-05-08T07:05:26;9.43;;;7.05;;
7440;SDS011;29616;51.950;8.572;2023-05-08T07:07:55;8.75;;;6.38;;
7440;SDS011;29616;51.950;8.572;2023-05-08T07:12:54;8.35;;;6.43;;
7440;SDS011;29616;51.950;8.572;2023-05-08T07:15:23;7.65;;;4.47;;
7440;SDS011;29616;51.950;8.572;2023-05-08T07:17:53;6.22;;;3.85;;
7440;SDS011;29616;51.950;8.572;2023-05-08T07:20:22;9.35;;;7.50;;
7440;SDS011;29616;51.950;8.572;2023-05-08T07:22:52;6.45;;;4.40;;
7440;SDS011;29616;51.950;8.572;2023-05-08T07:25:22;8.68;;;7.75;;
7440;SDS011;29616;51.950;8.572;2023-05-08T07:27:51;8.30;;;7.03;;
7440;SDS011;29616;51.950;8.572;2023-05-08T07:30:22;6.93;;;3.83;;
7440;SDS011;29616;51.950;8.572;2023-05-08T07:32:52;6.35;;;4.22;;
7440;SDS011;29616;51.950;8.572;2023-05-08T07:35:20;7.93;;;6.13;;
7440;SDS011;29616;51.950;8.572;2023-05-08T07:37:50;7.13;;;5.75;;
7440;SDS011;29616;51.950;8.572;2023-05-08T07:40:18;7.60;;;4.28;;
7440;SDS011;29616;51.950;8.572;2023-05-08T07:42:49;6.95;;;4.63;;
7440;SDS011;29616;51.950;8.572;2023-05-08T07:45:19;7.25;;;6.40;;
7440;SDS011;29616;51.950;8.572;2023-05-08T07:47:50;7.07;;;3.83;;
7440;SDS011;29616;51.950;8.572;2023-05-08T07:50:22;8.75;;;4.68;;
7440;SDS011;29616;51.950;8.572;2023-05-08T07:52:53;7.95;;;4.70;;
7440;SDS011;29616;51.950;8.572;2023-05-08T07:55:22;6.85;;;4.22;;
7440;SDS011;29616;51.950;8.572;2023-05-08T07:57:51;6.88;;;4.50;;
7440;SDS011;29616;51.950;8.572;2023-05-08T08:00:19;6.85;;;4.72;;
7440;SDS011;29616;51.950;8.572;2023-05-08T08:02:51;6.90;;;4.63;;
7440;SDS011;29616;51.950;8.572;2023-05-08T08:05:20;7.30;;;4.38;;
7440;SDS011;29616;51.950;8.572;2023-05-08T08:07:50;7.05;;;4.63;;
7440;SDS011;29616;51.950;8.572;2023-05-08T08:10:18;6.60;;;4.07;;
7440;SDS011;29616;51.950;8.572;2023-05-08T08:12:48;6.40;;;3.88;;
7440;SDS011;29616;51.950;8.572;2023-05-08T08:15:16;6.55;;;4.05;;
7440;SDS011;29616;51.950;8.572;2023-05-08T08:17:46;6.60;;;4.40;;
7440;SDS011;29616;51.950;8.572;2023-05-08T08:20:19;5.80;;;4.13;;
7440;SDS011;29616;51.950;8.572;2023-05-08T08:22:51;6.43;;;4.57;;
7440;SDS011;29616;51.950;8.572;2023-05-08T08:25:20;6.03;;;4.55;;
7440;SDS011;29616;51.950;8.572;2023-05-08T08:27:50;6.20;;;3.85;;
7440;SDS011;29616;51.950;8.572;2023-05-08T08:30:18;6.03;;;4.43;;
7440;SDS011;29616;51.950;8.572;2023-05-08T08:32:48;6.15;;;3.90;;
7440;SDS011;29616;51.950;8.572;2023-05-08T08:35:19;5.05;;;3.35;;
7440;SDS011;29616;51.950;8.572;2023-05-08T08:37:53;5.70;;;3.80;;
7440;SDS011;29616;51.950;8.572;2023-05-08T08:40:22;5.80;;;3.47;;
7440;SDS011;29616;51.950;8.572;2023-05-08T08:42:53;6.13;;;3.63;;
7440;SDS011;29616;51.950;8.572;2023-05-08T08:45:21;4.55;;;3.83;;
7440;SDS011;29616;51.950;8.572;2023-05-08T08:47:51;4.43;;;3.08;;
7440;SDS011;29616;51.950;8.572;2023-05-08T08:50:24;4.63;;;3.35;;
7440;SDS011;29616;51.950;8.572;2023-05-08T08:52:54;5.00;;;3.50;;
7440;SDS011;29616;51.950;8.572;2023-05-08T08:55:34;4.63;;;3.83;;
7440;SDS011;29616;51.950;8.572;2023-05-08T08:58:11;5.10;;;3.20;;
7440;SDS011;29616;51.950;8.572;2023-05-08T09:00:46;4.85;;;3.47;;
7440;SDS011;29616;51.950;8.572;2023-05-08T09:03:16;7.97;;;3.83;;
7440;SDS011;29616;51.950;8.572;2023-05-08T09:05:47;5.68;;;3.70;;
7440;SDS011;29616;51.950;8.572;2023-05-08T09:08:17;4.93;;;3.50;;
7440;SDS011;29616;51.950;8.572;2023-05-08T09:10:48;5.45;;;3.75;;
7440;SDS011;29616;51.950;8.572;2023-05-08T09:13:17;6.63;;;3.90;;
7440;SDS011;29616;51.950;8.572;2023-05-08T09:15:47;5.22;;;3.83;;
7440;SDS011;29616;51.950;8.572;2023-05-08T09:18:17;4.78;;;3.78;;
7440;SDS011;29616;51.950;8.572;2023-05-08T09:20:48;5.85;;;4.03;;
7440;SDS011;29616;51.950;8.572;2023-05-08T09:23:19;6.35;;;4.40;;
7440;SDS011;29616;51.950;8.572;2023-05-08T09:25:49;4.93;;;3.40;;
7440;SDS011;29616;51.950;8.572;2023-05-08T09:28:19;7.03;;;4.22;;
7440;SDS011;29616;51.950;8.572;2023-05-08T09:30:51;6.03;;;4.40;;
7440;SDS011;29616;51.950;8.572;2023-05-08T09:33:23;4.30;;;3.33;;
7440;SDS011;29616;51.950;8.572;2023-05-08T09:35:55;6.15;;;4.32;;
7440;SDS011;29616;51.950;8.572;2023-05-08T09:38:33;5.78;;;4.90;;
7440;SDS011;29616;51.950;8.572;2023-05-08T09:41:06;5.20;;;4.05;;
7440;SDS011;29616;51.950;8.572;2023-05-08T09:43:38;5.30;;;4.38;;
7440;SDS011;29616;51.950;8.572;2023-05-08T09:46:20;6.20;;;4.10;;
7440;SDS011;29616;51.950;8.572;2023-05-08T09:48:53;8.05;;;6.45;;
7440;SDS011;29616;51.950;8.572;2023-05-08T09:51:27;5.15;;;4.35;;
7440;SDS011;29616;51.950;8.572;2023-05-08T09:53:58;4.85;;;3.50;;
7440;SDS011;29616;51.950;8.572;2023-05-08T09:56:31;4.75;;;3.38;;
7440;SDS011;29616;51.950;8.572;2023-05-08T09:59:03;4.93;;;3.80;;
7440;SDS011;29616;51.950;8.572;2023-05-08T10:01:34;5.03;;;4.47;;
7440;SDS011;29616;51.950;8.572;2023-05-08T10:04:06;5.18;;;4.32;;
7440;SDS011;29616;51.950;8.572;2023-05-08T10:06:38;6.35;;;3.72;;
7440;SDS011;29616;51.950;8.572;2023-05-08T10:09:08;7.88;;;4.63;;
7440;SDS011;29616;51.950;8.572;2023-05-08T10:11:41;4.93;;;4.20;;
7440;SDS011;29616;51.950;8.572;2023-05-08T10:14:21;5.65;;;5.07;;
7440;SDS011;29616;51.950;8.572;2023-05-08T10:16:51;5.55;;;3.90;;
7440;SDS011;29616;51.950;8.572;2023-05-08T10:19:21;8.02;;;4.20;;
7440;SDS011;29616;51.950;8.572;2023-05-08T10:21:55;5.50;;;4.40;;
7440;SDS011;29616;51.950;8.572;2023-05-08T10:24:31;5.78;;;3.83;;
7440;SDS011;29616;51.950;8.572;2023-05-08T10:27:10;7.97;;;4.70;;
7440;SDS011;29616;51.950;8.572;2023-05-08T10:29:46;6.70;;;3.88;;
7440;SDS011;29616;51.950;8.572;2023-05-08T10:32:22;5.00;;;4.50;;
7440;SDS011;29616;51.950;8.572;2023-05-08T10:34:52;6.82;;;4.93;;
7440;SDS011;29616;51.950;8.572;2023-05-08T10:37:28;6.90;;;5.43;;
7440;SDS011;29616;51.950;8.572;2023-05-08T10:39:59;7.22;;;5.88;;
7440;SDS011;29616;51.950;8.572;2023-05-08T10:42:32;7.30;;;4.75;;
7440;SDS011;29616;51.950;8.572;2023-05-08T10:45:03;5.60;;;4.28;;
7440;SDS011;29616;51.950;8.572;2023-05-08T10:47:40;6.53;;;5.72;;
7440;SDS011;29616;51.950;8.572;2023-05-08T10:50:27;7.60;;;6.28;;
7440;SDS011;29616;51.950;8.572;2023-05-08T10:53:09;5.95;;;4.93;;
7440;SDS011;29616;51.950;8.572;2023-05-08T10:55:44;6.30;;;4.63;;
7440;SDS011;29616;51.950;8.572;2023-05-08T10:58:27;6.28;;;4.82;;
7440;SDS011;29616;51.950;8.572;2023-05-08T11:01:14;6.28;;;4.75;;
7440;SDS011;29616;51.950;8.572;2023-05-08T11:03:45;8.20;;;6.85;;
7440;SDS011;29616;51.950;8.572;2023-05-08T11:06:41;6.97;;;6.20;;
7440;SDS011;29616;51.950;8.572;2023-05-08T11:09:20;5.97;;;5.38;;
7440;SDS011;29616;51.950;8.572;2023-05-08T11:11:51;6.47;;;5.05;;
7440;SDS011;29616;51.950;8.572;2023-05-08T11:14:35;5.40;;;4.43;;
7440;SDS011;29616;51.950;8.572;2023-05-08T11:17:10;5.40;;;4.75;;
7440;SDS011;29616;51.950;8.572;2023-05-08T11:19:39;5.93;;;5.30;;
7440;SDS011;29616;51.950;8.572;2023-05-08T11:22:29;5.82;;;5.05;;
7440;SDS011;29616;51.950;8.572;2023-05-08T11:25:01;7.50;;;6.35;;
7440;SDS011;29616;51.950;8.572;2023-05-08T11:27:34;8.68;;;6.53;;
7440;SDS011;29616;51.950;8.572;2023-05-08T11:30:34;9.85;;;7.10;;
7440;SDS011;29616;51.950;8.572;2023-05-08T11:33:13;7.88;;;6.10;;
7440;SDS011;29616;51.950;8.572;2023-05-08T11:35:44;9.63;;;8.60;;
7440;SDS011;29616;51.950;8.572;2023-05-08T11:38:24;6.93;;;5.78;;
7440;SDS011;29616;51.950;8.572;2023-05-08T11:40:58;9.30;;;6.85;;
7440;SDS011;29616;51.950;8.572;2023-05-08T11:43:48;8.68;;;6.07;;
7440;SDS011;29616;51.950;8.572;2023-05-08T11:46:42;8.05;;;6.35;;
7440;SDS011;29616;51.950;8.572;2023-05-08T11:49:19;8.43;;;6.78;;
7440;SDS011;29616;51.950;8.572;2023-05-08T11:51:53;7.93;;;6.22;;
7440;SDS011;29616;51.950;8.572;2023-05-08T11:54:28;8.52;;;6.65;;
7440;SDS011;29616;51.950;8.572;2023-05-08T11:57:01;6.20;;;5.22;;
7440;SDS011;29616;51.950;8.572;2023-05-08T11:59:33;8.05;;;6.57;;
7440;SDS011;29616;51.950;8.572;2023-05-08T12:02:04;8.80;;;6.03;;
7440;SDS011;29616;51.950;8.572;2023-05-08T12:04:41;8.73;;;5.75;;
7440;SDS011;29616;51.950;8.572;2023-05-08T12:07:13;10.00;;;6.68;;
7440;SDS011;29616;51.950;8.572;2023-05-08T12:09:44;7.35;;;6.10;;
7440;SDS011;29616;51.950;8.572;2023-05-08T12:12:16;7.85;;;5.85;;
7440;SDS011;29616;51.950;8.572;2023-05-08T12:14:48;7.20;;;6.50;;
7440;SDS011;29616;51.950;8.572;2023-05-08T12:17:19;7.05;;;6.25;;
7440;SDS011;29616;51.950;8.572;2023-05-08T12:19:50;10.68;;;7.05;;
7440;SDS011;29616;51.950;8.572;2023-05-08T12:22:22;8.48;;;6.50;;
7440;SDS011;29616;51.950;8.572;2023-05-08T12:24:52;10.07;;;6.28;;
7440;SDS011;29616;51.950;8.572;2023-05-08T12:27:21;9.20;;;6.70;;
7440;SDS011;29616;51.950;8.572;2023-05-08T12:29:53;7.05;;;5.55;;
7440;SDS011;29616;51.950;8.572;2023-05-08T12:32:21;8.10;;;5.63;;
7440;SDS011;29616;51.950;8.572;2023-05-08T12:34:55;7.63;;;5.85;;
7440;SDS011;29616;51.950;8.572;2023-05-08T12:37:25;6.57;;;5.43;;
7440;SDS011;29616;51.950;8.572;2023-05-08T12:39:54;7.50;;;5.95;;
7440;SDS011;29616;51.950;8.572;2023-05-08T12:45:15;7.63;;;6.43;;
7440;SDS011;29616;51.950;8.572;2023-05-08T12:47:45;9.77;;;6.32;;
7440;SDS011;29616;51.950;8.572;2023-05-08T12:50:17;7.78;;;6.05;;
7440;SDS011;29616;51.950;8.572;2023-05-08T12:52:49;7.40;;;5.57;;
7440;SDS011;29616;51.950;8.572;2023-05-08T12:55:20;7.50;;;5.40;;
7440;SDS011;29616;51.950;8.572;2023-05-08T12:57:59;8.32;;;6.05;;
7440;SDS011;29616;51.950;8.572;2023-05-08T13:00:36;6.22;;;5.13;;
7440;SDS011;29616;51.950;8.572;2023-05-08T13:03:09;7.72;;;5.43;;
7440;SDS011;29616;51.950;8.572;2023-05-08T13:05:41;6.00;;;4.88;;
7440;SDS011;29616;51.950;8.572;2023-05-08T13:08:13;7.18;;;4.97;;
7440;SDS011;29616;51.950;8.572;2023-05-08T13:10:47;6.82;;;5.35;;
7440;SDS011;29616;51.950;8.572;2023-05-08T13:13:20;7.38;;;5.28;;
7440;SDS011;29616;51.950;8.572;2023-05-08T13:15:54;7.88;;;5.22;;
7440;SDS011;29616;51.950;8.572;2023-05-08T13:18:23;9.57;;;7.53;;
7440;SDS011;29616;51.950;8.572;2023-05-08T13:20:54;8.40;;;5.43;;
7440;SDS011;29616;51.950;8.572;2023-05-08T13:23:23;8.35;;;5.43;;
7440;SDS011;29616;51.950;8.572;2023-05-08T13:25:54;9.25;;;4.50;;
7440;SDS011;29616;51.950;8.572;2023-05-08T13:28:25;8.55;;;5.50;;
7440;SDS011;29616;51.950;8.572;2023-05-08T13:30:53;7.28;;;5.03;;
7440;SDS011;29616;51.950;8.572;2023-05-08T13:33:23;7.28;;;6.57;;
7440;SDS011;29616;51.950;8.572;2023-05-08T13:35:52;8.63;;;5.00;;
7440;SDS011;29616;51.950;8.572;2023-05-08T13:38:22;8.32;;;5.72;;
7440;SDS011;29616;51.950;8.572;2023-05-08T13:40:53;6.43;;;4.65;;
7440;SDS011;29616;51.950;8.572;2023-05-08T13:43:22;9.35;;;5.20;;
7440;SDS011;29616;51.950;8.572;2023-05-08T13:45:53;9.73;;;8.07;;
7440;SDS011;29616;51.950;8.572;2023-05-08T13:48:23;6.47;;;5.30;;
7440;SDS011;29616;51.950;8.572;2023-05-08T13:50:53;11.90;;;5.90;;
7440;SDS011;29616;51.950;8.572;2023-05-08T13:53:24;6.90;;;5.03;;
7440;SDS011;29616;51.950;8.572;2023-05-08T13:55:54;6.45;;;4.93;;
7440;SDS011;29616;51.950;8.572;2023-05-08T13:58:25;6.95;;;4.45;;
7440;SDS011;29616;51.950;8.572;2023-05-08T14:00:53;6.20;;;4.30;;
7440;SDS011;29616;51.950;8.572;2023-05-08T14:03:21;8.07;;;5.43;;
7440;SDS011;29616;51.950;8.572;2023-05-08T14:05:50;8.07;;;7.28;;
7440;SDS011;29616;51.950;8.572;2023-05-08T14:08:20;6.18;;;4.53;;
7440;SDS011;29616;51.950;8.572;2023-05-08T14:10:48;7.85;;;7.05;;
7440;SDS011;29616;51.950;8.572;2023-05-08T14:13:20;8.50;;;7.20;;
7440;SDS011;29616;51.950;8.572;2023-05-08T14:15:52;6.68;;;4.85;;
7440;SDS011;29616;51.950;8.572;2023-05-08T14:18:21;8.20;;;6.50;;
7440;SDS011;29616;51.950;8.572;2023-05-08T14:20:50;7.50;;;4.53;;
7440;SDS011;29616;51.950;8.572;2023-05-08T14:23:23;8.55;;;5.00;;
7440;SDS011;29616;51.950;8.572;2023-05-08T14:25:54;9.30;;;6.40;;
7440;SDS011;29616;51.950;8.572;2023-05-08T14:28:22;12.45;;;6.95;;
7440;SDS011;29616;51.950;8.572;2023-05-08T14:30:53;10.70;;;6.78;;
7440;SDS011;29616;51.950;8.572;2023-05-08T14:33:24;15.02;;;11.48;;
7440;SDS011;29616;51.950;8.572;2023-05-08T14:35:54;16.80;;;10.43;;
7440;SDS011;29616;51.950;8.572;2023-05-08T14:38:24;14.88;;;8.70;;
7440;SDS011;29616;51.950;8.572;2023-05-08T14:40:52;18.05;;;10.95;;
7440;SDS011;29616;51.950;8.572;2023-05-08T14:43:22;18.13;;;10.23;;
7440;SDS011;29616;51.950;8.572;2023-05-08T14:45:53;23.02;;;14.38;;
7440;SDS011;29616;51.950;8.572;2023-05-08T14:48:22;19.75;;;13.02;;
7440;SDS011;29616;51.950;8.572;2023-05-08T14:50:52;20.83;;;13.73;;
7440;SDS011;29616;51.950;8.572;2023-05-08T14:53:23;18.15;;;13.30;;
7440;SDS011;29616;51.950;8.572;2023-05-08T14:55:53;16.35;;;10.82;;
7440;SDS011;29616;51.950;8.572;2023-05-08T14:58:21;19.50;;;13.45;;
7440;SDS011;29616;51.950;8.572;2023-05-08T15:00:54;17.30;;;12.63;;
7440;SDS011;29616;51.950;8.572;2023-05-08T15:03:24;22.20;;;12.30;;
7440;SDS011;29616;51.950;8.572;2023-05-08T15:05:54;18.73;;;11.05;;
7440;SDS011;29616;51.950;8.572;2023-05-08T15:08:23;20.52;;;11.52;;
7440;SDS011;29616;51.950;8.572;2023-05-08T15:10:52;24.90;;;16.58;;
7440;SDS011;29616;51.950;8.572;2023-05-08T15:13:23;22.10;;;11.20;;
7440;SDS011;29616;51.950;8.572;2023-05-08T15:15:54;21.30;;;14.27;;
7440;SDS011;29616;51.950;8.572;2023-05-08T15:18:24;23.35;;;13.45;;
7440;SDS011;29616;51.950;8.572;2023-05-08T15:20:55;24.60;;;12.98;;
7440;SDS011;29616;51.950;8.572;2023-05-08T15:23:27;25.88;;;15.10;;
7440;SDS011;29616;51.950;8.572;2023-05-08T15:28:23;26.33;;;18.15;;
7440;SDS011;29616;51.950;8.572;2023-05-08T15:30:54;29.58;;;17.13;;
7440;SDS011;29616;51.950;8.572;2023-05-08T15:33:25;24.25;;;13.93;;
7440;SDS011;29616;51.950;8.572;2023-05-08T15:38:21;30.42;;;16.17;;
7440;SDS011;29616;51.950;8.572;2023-05-08T15:40:52;33.13;;;16.77;;
7440;SDS011;29616;51.950;8.572;2023-05-08T15:43:20;28.38;;;15.40;;
7440;SDS011;29616;51.950;8.572;2023-05-08T15:45:50;32.55;;;15.93;;